Aeroporto :
LOGIN :

Iscrizione | Disclaimer

   EN    FR    IT 

 










Sommario :    VFR   VFR Marginale   IFR   IFR Intensivo   IFR Molto Intensivo
Visibilità : 
Base nubi : 
>= 8 km
>= 3000ft
5 / 8 km
1000 / 3000 ft
1500m / 5 km
500 / 1000 ft
800 / 1500m
200 / 500 ft
< 800m
< 200 ft
Simboli :   Temporali  Nebbia  Neve Forte  Precipitazioni Forti  Vento > 20 kt
SIGMETs :   Varie  Temporali  Ghiacco  Turbolenza  Onda orograficha  Ceneri Vulcaniche






- Altitudine del aeroporto : 741 ft
- Codice IATA : PED


LKPD - Pardubice AB

ULTIMO METAR :
  • 231800Z 27023KT 9999 OVC039 13/08 Q1005 RMK BLACK

METARs OBSOLETI :
  • 231730Z 27021KT 9999 -RA BKN040 OVC050 13/08 Q1005 NOSIG RMK BLU BLU
  • 231700Z 27021KT 9999 -RA BKN040 OVC049 13/08 Q1005 NOSIG RMK BLU BLU
  • 231630Z 26019KT 9999 -RA BKN034 OVC044 12/08 Q1005 NOSIG RMK BLU BLU
  • 231600Z 26020G33KT 9999 -RA SCT034 OVC040 12/08 Q1006 NOSIG
  • 231530Z 26019KT 9999 -RA BKN037 OVC043 12/07 Q1005 NOSIG RMK BLU BLU
  • 231500Z 26020G29KT 9999 -RA SCT037 OVC042 12/07 Q1006 NOSIG RMK BLU BLU

TAF TAF LKPD
Valido dal 23 a 12 ore il 24 a 12 ore UTC


231100Z 2312/2412 26016KT 9999 BKN035
TEMPO 2312/2401 26020G38KT 6000 RA BKN020
PROB40
TEMPO 2315/2403 28028G54KT
PROB30
TEMPO 2319/2323 3000 SHRA SCT014TCU BKN027
BECMG 2400/2403 29014KT CAVOK



MetMap, La meteo Aeronautica in un colpo d'occhio ! - Copyright ORBIFLY Dicembre 2007 - Disclaimer

ORBIFLY MET'MAP TEAM :

Programmazione e sviluppo : Alexandra Zaïnal
Concezione : Baudouin d'Aumeries
Aiuto per la programmazione : Marc-Olivier Méhu
Supporto tecnico e logistico : Manuel Goepfert
Aiuto per la traduzione : Arnaldo La Scala

Contatto : metmap@orbifly.com




FONTI E CREDITI :

   NOAA